Time;durP1;ratioP1;P1;durP2;ratioP2;P2;SDS_P1;SDS_P2;PMS_P1;PMS_P2;Temp;Humidity;BMP_temperature;BMP_pressure;BME280_temperature;BME280_humidity;BME280_pressure;Samples;Min_cycle;Max_cycle;Signal;HPM_P1;HPM_P2
2024/03/21 00:00:39;;;;;;;16.58;12.60;;;13.60;99.90;;;;;;5033806;28;20105;-34
2024/03/21 00:03:08;;;;;;;17.70;12.93;;;13.60;99.90;;;;;;5037845;28;20021;-29
2024/03/21 00:05:34;;;;;;;18.35;13.10;;;13.60;99.90;;;;;;5035970;28;20037;-32
2024/03/21 00:07:59;;;;;;;14.57;10.93;;;13.60;99.90;;;;;;5035005;28;20103;-30
2024/03/21 00:10:27;;;;;;;14.48;11.70;;;13.60;99.90;;;;;;5037701;28;20559;-33
2024/03/21 00:12:53;;;;;;;14.40;11.38;;;13.50;99.90;;;;;;5033552;28;20033;-35
2024/03/21 00:15:19;;;;;;;16.10;12.48;;;13.50;99.90;;;;;;5039384;28;20024;-35
2024/03/21 00:17:46;;;;;;;17.73;13.55;;;13.50;99.90;;;;;;5030340;28;20028;-34
2024/03/21 00:20:12;;;;;;;17.95;13.30;;;13.50;99.90;;;;;;5040585;28;20226;-34
2024/03/21 00:22:39;;;;;;;16.90;12.80;;;13.50;99.90;;;;;;5029936;28;20599;-31
2024/03/21 00:25:05;;;;;;;17.27;12.63;;;13.50;99.90;;;;;;5041624;28;20029;-33
2024/03/21 00:27:35;;;;;;;17.33;12.10;;;13.50;99.90;;;;;;5028873;28;20064;-35
2024/03/21 00:30:01;;;;;;;14.75;12.10;;;13.40;99.90;;;;;;5038111;28;20035;-32
2024/03/21 00:32:27;;;;;;;15.25;12.07;;;13.40;99.90;;;;;;5032911;28;20021;-33
2024/03/21 00:34:54;;;;;;;15.05;11.93;;;13.40;99.90;;;;;;5021818;28;20443;-31
2024/03/21 00:37:21;;;;;;;16.85;13.20;;;13.30;99.90;;;;;;5032517;28;20060;-33
2024/03/21 00:39:48;;;;;;;21.00;15.25;;;13.30;99.90;;;;;;5021508;28;20989;-31
2024/03/21 00:42:14;;;;;;;16.40;13.63;;;13.30;99.90;;;;;;5030174;28;20036;-32
2024/03/21 00:44:39;;;;;;;18.30;13.20;;;13.30;99.90;;;;;;5024310;28;20032;-34
2024/03/21 00:47:05;;;;;;;17.15;12.45;;;13.30;99.90;;;;;;5027634;28;20041;-34
2024/03/21 00:49:30;;;;;;;17.73;13.35;;;13.30;99.90;;;;;;5026477;28;20017;-32
2024/03/21 00:51:56;;;;;;;17.42;12.57;;;13.30;99.90;;;;;;5026315;28;20024;-31
2024/03/21 00:54:22;;;;;;;14.68;12.40;;;13.30;99.90;;;;;;5028388;28;20022;-32
2024/03/21 00:56:48;;;;;;;17.25;12.57;;;13.20;99.90;;;;;;5022237;28;20032;-34
2024/03/21 00:59:13;;;;;;;17.58;13.50;;;13.20;99.90;;;;;;5031195;28;20029;-32
2024/03/21 01:01:40;;;;;;;18.48;14.65;;;13.20;99.90;;;;;;5022199;28;20064;-33
2024/03/21 01:04:07;;;;;;;17.85;14.27;;;13.20;99.90;;;;;;5031784;28;20648;-32
2024/03/21 01:06:33;;;;;;;19.92;15.75;;;13.10;99.90;;;;;;5020688;28;20064;-33
2024/03/21 01:08:59;;;;;;;18.92;14.70;;;13.10;99.90;;;;;;5032699;28;20037;-34
2024/03/21 01:11:31;;;;;;;23.90;18.05;;;13.10;99.90;;;;;;5019581;28;20041;-35
2024/03/21 01:13:56;;;;;;;23.92;18.17;;;13.00;99.90;;;;;;5033471;28;20021;-37
2024/03/21 01:16:22;;;;;;;25.35;19.75;;;12.90;99.90;;;;;;5020908;28;20068;-33
2024/03/21 01:18:47;;;;;;;24.05;18.85;;;12.90;99.90;;;;;;5033540;28;20066;-33
2024/03/21 01:21:16;;;;;;;25.45;19.17;;;12.90;99.90;;;;;;5021361;28;20476;-32
2024/03/21 01:23:41;;;;;;;28.35;21.33;;;12.80;99.90;;;;;;5030431;28;20079;-33
2024/03/21 01:26:07;;;;;;;25.25;19.70;;;12.80;99.90;;;;;;5023522;28;20037;-32
2024/03/21 01:28:33;;;;;;;27.35;20.48;;;12.70;99.90;;;;;;5027091;28;20029;-33
2024/03/21 01:31:14;;;;;;;25.35;19.40;;;12.70;99.90;;;;;;5024862;28;20054;-34
2024/03/21 01:33:51;;;;;;;24.63;19.42;;;12.60;99.90;;;;;;5027322;28;20479;-34
2024/03/21 01:36:17;;;;;;;21.02;15.98;;;12.60;99.90;;;;;;5023606;28;20028;-33
2024/03/21 01:38:43;;;;;;;20.83;15.15;;;12.60;99.90;;;;;;5026282;28;20029;-34
2024/03/21 01:41:09;;;;;;;18.23;14.23;;;12.60;99.90;;;;;;5027039;28;20551;-34
2024/03/21 01:43:38;;;;;;;17.38;13.85;;;12.60;99.90;;;;;;5023458;28;20029;-36
2024/03/21 01:46:04;;;;;;;15.27;12.38;;;12.60;99.90;;;;;;5027840;28;20164;-37
2024/03/21 01:48:29;;;;;;;16.00;13.38;;;12.70;99.90;;;;;;5021338;28;20065;-37
2024/03/21 01:50:55;;;;;;;16.67;13.07;;;12.70;99.90;;;;;;5031380;28;20060;-34
2024/03/21 01:53:20;;;;;;;20.45;15.15;;;12.70;99.90;;;;;;5021125;28;20022;-32
2024/03/21 01:55:46;;;;;;;18.60;14.82;;;12.80;99.90;;;;;;5031544;28;20024;-36
2024/03/21 01:58:12;;;;;;;17.67;13.88;;;12.80;99.90;;;;;;5020457;28;20491;-32
2024/03/21 02:00:38;;;;;;;18.00;13.45;;;12.80;99.90;;;;;;5031623;28;20025;-30
2024/03/21 02:03:04;;;;;;;15.40;13.35;;;12.80;99.90;;;;;;5020348;28;20030;-33
2024/03/21 02:05:29;;;;;;;16.83;12.65;;;12.80;99.90;;;;;;5031917;28;20069;-33
2024/03/21 02:07:55;;;;;;;14.82;12.45;;;12.80;99.90;;;;;;5020029;28;20660;-33
2024/03/21 02:10:20;;;;;;;14.50;12.38;;;12.80;99.90;;;;;;5030192;28;20561;-35
2024/03/21 02:12:46;;;;;;;16.55;12.93;;;12.80;99.90;;;;;;5021193;28;20021;-34
2024/03/21 02:15:12;;;;;;;18.27;13.77;;;12.70;99.90;;;;;;5027957;28;20033;-37
2024/03/21 02:17:39;;;;;;;15.77;12.15;;;12.70;99.90;;;;;;5023373;28;20057;-36
2024/03/21 02:20:06;;;;;;;16.40;13.57;;;12.70;99.90;;;;;;5025339;28;20146;-34
2024/03/21 02:22:37;;;;;;;17.08;13.10;;;12.70;99.90;;;;;;5026292;28;20029;-34
2024/03/21 02:25:09;;;;;;;15.38;12.65;;;12.70;99.90;;;;;;5023934;28;20021;-34
2024/03/21 02:27:36;;;;;;;20.92;16.75;;;12.70;99.90;;;;;;5026307;28;20075;-38
2024/03/21 02:30:03;;;;;;;20.45;14.63;;;12.60;99.90;;;;;;5023197;28;20061;-34
2024/03/21 02:32:29;;;;;;;18.40;14.35;;;12.60;99.90;;;;;;5029102;28;20091;-35
2024/03/21 02:34:55;;;;;;;20.23;15.93;;;12.60;99.90;;;;;;5020807;28;20025;-35
2024/03/21 02:37:21;;;;;;;19.88;14.65;;;12.60;99.90;;;;;;5030338;28;20771;-36
2024/03/21 02:39:48;;;;;;;17.80;14.85;;;12.60;99.90;;;;;;5023107;28;20048;-33
2024/03/21 02:42:13;;;;;;;19.80;15.57;;;12.50;99.90;;;;;;5034594;28;20433;-35
2024/03/21 02:44:39;;;;;;;25.27;18.60;;;12.50;99.90;;;;;;5024167;28;20083;-32
2024/03/21 02:47:05;;;;;;;22.75;16.90;;;12.40;99.90;;;;;;5035589;28;20033;-32
2024/03/21 02:49:30;;;;;;;23.50;16.27;;;12.40;99.90;;;;;;5022376;28;20215;-33
2024/03/21 02:51:56;;;;;;;22.08;15.68;;;12.40;99.90;;;;;;5035906;28;20109;-33
2024/03/21 02:54:21;;;;;;;18.05;13.75;;;12.40;99.90;;;;;;5023830;28;20040;-35
2024/03/21 02:56:47;;;;;;;19.58;15.27;;;12.40;99.90;;;;;;5033206;28;20459;-36
2024/03/21 02:59:12;;;;;;;17.33;13.75;;;12.40;99.90;;;;;;5025831;28;20108;-31
2024/03/21 03:01:38;;;;;;;21.23;16.08;;;12.40;99.90;;;;;;5031058;28;20021;-35
2024/03/21 03:04:10;;;;;;;18.00;14.00;;;12.40;99.90;;;;;;5028198;28;20026;-36
2024/03/21 03:06:36;;;;;;;20.55;16.85;;;12.30;99.90;;;;;;5028087;28;20025;-32
2024/03/21 03:09:01;;;;;;;21.85;17.83;;;12.20;99.90;;;;;;5030118;28;20026;-32
2024/03/21 03:11:27;;;;;;;22.17;16.67;;;12.20;99.90;;;;;;5025538;28;20751;-35
2024/03/21 03:13:52;;;;;;;26.60;18.77;;;12.10;99.90;;;;;;5032801;28;20033;-33
2024/03/21 03:16:18;;;;;;;24.52;18.63;;;12.10;99.90;;;;;;5024761;28;20025;-32
2024/03/21 03:18:44;;;;;;;25.85;19.50;;;12.00;99.90;;;;;;5034413;28;20077;-35
2024/03/21 03:21:10;;;;;;;25.98;19.02;;;12.00;99.90;;;;;;5023996;28;20111;-32
2024/03/21 03:23:35;;;;;;;22.83;18.27;;;12.00;99.90;;;;;;5033591;28;20108;-33
2024/03/21 03:26:01;;;;;;;26.48;17.33;;;12.00;99.90;;;;;;5022863;28;20128;-32
2024/03/21 03:28:26;;;;;;;29.02;20.90;;;12.00;99.90;;;;;;5034442;28;20041;-33
2024/03/21 03:30:55;;;;;;;25.73;18.67;;;12.00;99.90;;;;;;5022879;28;20052;-32
2024/03/21 03:36:08;;;;;;;23.80;17.55;;;11.90;99.90;;;;;;5023081;28;20115;-33
2024/03/21 03:38:33;;;;;;;24.80;19.75;;;11.80;99.90;;;;;;5034508;28;20029;-35
2024/03/21 03:40:59;;;;;;;31.50;21.88;;;11.80;99.90;;;;;;5023201;28;20045;-35
2024/03/21 03:43:24;;;;;;;28.35;21.13;;;11.70;99.90;;;;;;5032577;28;20430;-34
2024/03/21 03:45:50;;;;;;;30.58;22.15;;;11.60;99.90;;;;;;5023789;28;20050;-33
2024/03/21 03:48:16;;;;;;;25.52;18.90;;;11.60;99.90;;;;;;5030358;28;20021;-32
2024/03/21 03:50:41;;;;;;;28.35;20.80;;;11.60;99.90;;;;;;5026393;28;20038;-34
2024/03/21 03:53:07;;;;;;;29.02;21.75;;;11.60;99.90;;;;;;5027703;28;20384;-32
2024/03/21 03:55:32;;;;;;;30.20;22.50;;;11.60;99.90;;;;;;5028938;28;20499;-33
2024/03/21 03:57:58;;;;;;;32.28;24.77;;;11.60;99.90;;;;;;5024823;28;20867;-34
2024/03/21 04:00:23;;;;;;;30.23;23.45;;;11.60;99.90;;;;;;5030897;28;20036;-34
2024/03/21 04:02:49;;;;;;;29.75;22.65;;;11.60;99.90;;;;;;5022834;28;20029;-32
2024/03/21 04:05:17;;;;;;;30.35;22.95;;;11.50;99.90;;;;;;5033376;28;20018;-33
2024/03/21 04:07:45;;;;;;;31.80;23.50;;;11.50;99.90;;;;;;5022892;28;20071;-35
2024/03/21 04:10:11;;;;;;;24.48;19.42;;;11.60;99.90;;;;;;5032613;28;20128;-34
2024/03/21 04:12:39;;;;;;;27.85;22.00;;;11.60;99.90;;;;;;5021805;28;20136;-37
2024/03/21 04:15:05;;;;;;;30.88;23.55;;;11.60;99.90;;;;;;5028386;28;20019;-33
2024/03/21 04:17:31;;;;;;;28.85;22.10;;;11.60;99.90;;;;;;5041489;28;20060;-36
2024/03/21 04:19:56;;;;;;;31.55;23.55;;;11.60;99.90;;;;;;5028683;28;20180;-33
2024/03/21 04:22:22;;;;;;;28.58;23.35;;;11.60;99.90;;;;;;5042516;28;20037;-32
2024/03/21 04:24:50;;;;;;;28.80;21.83;;;11.60;99.90;;;;;;5031208;28;20022;-35
2024/03/21 04:27:16;;;;;;;25.23;19.50;;;11.60;99.90;;;;;;5039972;28;20091;-34
2024/03/21 04:29:42;;;;;;;21.13;17.98;;;11.60;99.90;;;;;;5032860;28;20025;-35
2024/03/21 04:32:15;;;;;;;26.00;19.67;;;11.60;99.90;;;;;;5037690;28;20044;-34
2024/03/21 04:34:41;;;;;;;23.50;18.23;;;11.60;99.90;;;;;;5033925;28;20183;-32
2024/03/21 04:37:13;;;;;;;18.90;16.10;;;11.60;99.90;;;;;;5036696;28;20021;-34
2024/03/21 04:39:39;;;;;;;20.02;15.32;;;11.60;99.90;;;;;;5035975;28;20076;-36
2024/03/21 04:42:04;;;;;;;16.80;15.00;;;11.60;99.90;;;;;;5034077;28;20847;-35
2024/03/21 04:44:30;;;;;;;14.48;12.88;;;11.60;99.90;;;;;;5038196;28;20458;-35
2024/03/21 04:46:58;;;;;;;12.60;10.95;;;11.60;99.90;;;;;;5031535;28;20047;-33
2024/03/21 04:49:24;;;;;;;10.13;8.15;;;11.60;99.90;;;;;;5039586;28;20029;-34
2024/03/21 04:51:49;;;;;;;8.05;6.70;;;11.50;99.90;;;;;;5030692;28;20797;-35
2024/03/21 04:54:17;;;;;;;6.55;5.50;;;11.40;99.90;;;;;;5040558;28;20464;-33
2024/03/21 04:56:43;;;;;;;6.25;5.47;;;11.30;99.90;;;;;;5030111;28;20067;-35
2024/03/21 04:59:14;;;;;;;6.60;5.75;;;11.20;99.90;;;;;;5041453;28;20558;-34
2024/03/21 05:01:40;;;;;;;6.13;4.70;;;11.20;99.90;;;;;;5028565;28;20770;-34
2024/03/21 05:04:06;;;;;;;4.43;4.00;;;11.10;99.90;;;;;;5040220;28;20028;-33
2024/03/21 05:06:31;;;;;;;4.82;4.00;;;11.00;99.90;;;;;;5028320;28;20425;-35
2024/03/21 05:09:00;;;;;;;4.18;3.65;;;10.90;99.90;;;;;;5041002;28;20021;-35
2024/03/21 05:11:26;;;;;;;5.97;4.07;;;10.90;99.90;;;;;;5029367;28;20036;-35
2024/03/21 05:13:52;;;;;;;4.93;3.70;;;10.80;99.90;;;;;;5040391;28;20060;-35
2024/03/21 05:16:18;;;;;;;4.68;3.67;;;10.80;99.90;;;;;;5031161;28;20014;-31
2024/03/21 05:18:44;;;;;;;4.55;3.75;;;10.80;99.90;;;;;;5036663;28;20045;-33
2024/03/21 05:21:10;;;;;;;4.95;4.22;;;10.70;99.90;;;;;;5034089;28;20747;-32
2024/03/21 05:23:35;;;;;;;5.30;4.05;;;10.80;99.90;;;;;;5034323;28;20036;-36
2024/03/21 05:26:01;;;;;;;4.20;3.80;;;10.70;99.90;;;;;;5036749;28;20033;-33
2024/03/21 05:28:27;;;;;;;4.25;3.75;;;10.70;99.90;;;;;;5031634;28;20079;-35
2024/03/21 05:30:53;;;;;;;4.40;4.00;;;10.60;99.90;;;;;;5039145;28;20212;-34
2024/03/21 05:33:18;;;;;;;5.32;4.38;;;10.60;99.90;;;;;;5029562;28;20025;-38
2024/03/21 05:35:44;;;;;;;5.28;4.78;;;10.60;99.90;;;;;;5038966;28;20040;-34
2024/03/21 05:38:11;;;;;;;4.90;4.50;;;10.50;99.90;;;;;;5028772;28;20021;-36
2024/03/21 05:40:40;;;;;;;5.80;5.28;;;10.60;99.90;;;;;;5039771;28;20036;-34
2024/03/21 05:43:07;;;;;;;6.68;5.20;;;10.60;99.90;;;;;;5027321;28;20025;-36
2024/03/21 05:45:33;;;;;;;6.88;5.97;;;10.60;99.90;;;;;;5040205;28;20039;-36
2024/03/21 05:47:59;;;;;;;7.53;6.72;;;10.60;99.90;;;;;;5027911;28;20037;-35
2024/03/21 05:50:25;;;;;;;8.38;6.38;;;10.50;99.90;;;;;;5040851;28;20024;-33
2024/03/21 05:52:50;;;;;;;7.57;6.70;;;10.50;99.90;;;;;;5028400;28;20037;-34
2024/03/21 05:55:16;;;;;;;6.43;5.60;;;10.40;99.90;;;;;;5039530;28;20028;-35
2024/03/21 05:57:41;;;;;;;8.15;7.15;;;10.40;99.90;;;;;;5031830;28;20021;-35
2024/03/21 06:00:11;;;;;;;8.75;7.57;;;10.50;99.90;;;;;;5037028;28;20040;-36
2024/03/21 06:02:37;;;;;;;7.68;6.80;;;10.50;99.90;;;;;;5032954;28;20028;-34
2024/03/21 06:05:03;;;;;;;7.20;6.50;;;10.40;99.90;;;;;;5034510;28;20021;-32
2024/03/21 06:07:28;;;;;;;7.32;6.30;;;10.40;99.90;;;;;;5035192;28;20400;-35
2024/03/21 06:09:54;;;;;;;6.68;6.05;;;10.30;99.90;;;;;;5031787;28;20028;-36
2024/03/21 06:12:19;;;;;;;6.30;4.55;;;10.30;99.90;;;;;;5036768;28;20021;-33
2024/03/21 06:14:45;;;;;;;5.40;3.63;;;10.30;99.90;;;;;;5029396;28;20021;-38
2024/03/21 06:17:11;;;;;;;5.10;3.10;;;10.30;99.90;;;;;;5037272;28;20187;-36
2024/03/21 06:19:36;;;;;;;4.80;2.58;;;10.20;99.90;;;;;;5027989;28;20558;-36
2024/03/21 06:22:02;;;;;;;7.50;2.38;;;10.10;99.90;;;;;;5039639;28;20359;-36
2024/03/21 06:24:27;;;;;;;6.00;2.05;;;10.10;99.90;;;;;;5026988;28;20521;-33
2024/03/21 06:26:53;;;;;;;8.52;2.20;;;10.10;99.90;;;;;;5039577;28;20033;-32
2024/03/21 06:29:19;;;;;;;4.28;2.20;;;10.10;99.90;;;;;;5026427;28;20017;-35
2024/03/21 06:31:47;;;;;;;4.88;1.70;;;10.10;99.90;;;;;;5040269;28;20519;-33
2024/03/21 06:34:13;;;;;;;5.53;2.15;;;10.10;99.90;;;;;;5027743;28;20580;-33
2024/03/21 06:36:38;;;;;;;4.65;1.55;;;10.10;99.90;;;;;;5039472;28;20033;-33
2024/03/21 06:39:04;;;;;;;6.40;2.05;;;10.10;99.90;;;;;;5031180;28;20018;-37
2024/03/21 06:41:30;;;;;;;4.53;1.70;;;10.10;99.90;;;;;;5036293;28;20027;-32
2024/03/21 06:43:56;;;;;;;4.70;1.80;;;10.00;99.90;;;;;;5033402;28;20025;-32
2024/03/21 06:46:22;;;;;;;5.20;1.33;;;10.00;99.90;;;;;;5033731;28;20041;-35
2024/03/21 06:48:48;;;;;;;2.83;1.08;;;10.00;99.90;;;;;;5035052;28;20099;-30
2024/03/21 06:51:13;;;;;;;3.63;1.35;;;10.00;99.90;;;;;;5031011;28;20044;-33
2024/03/21 06:53:39;;;;;;;5.35;1.80;;;10.00;99.90;;;;;;5037799;28;20021;-33
2024/03/21 06:56:05;;;;;;;2.15;1.38;;;9.90;99.90;;;;;;5027730;28;20137;-35
2024/03/21 06:58:32;;;;;;;2.80;1.25;;;9.90;99.90;;;;;;5037408;28;20053;-32
2024/03/21 07:00:58;;;;;;;4.25;1.38;;;9.90;99.90;;;;;;5028548;28;20037;-36
2024/03/21 07:03:23;;;;;;;4.75;1.60;;;9.90;99.90;;;;;;5038155;28;20037;-37
2024/03/21 07:05:49;;;;;;;5.80;1.33;;;9.90;99.90;;;;;;5026026;28;20029;-33
2024/03/21 07:08:15;;;;;;;3.83;1.55;;;9.90;99.90;;;;;;5038653;28;20031;-36
2024/03/21 07:10:40;;;;;;;3.92;1.25;;;9.90;99.90;;;;;;5026386;28;20021;-37
2024/03/21 07:13:06;;;;;;;4.03;1.33;;;9.90;99.90;;;;;;5039299;28;20087;-35
2024/03/21 07:15:31;;;;;;;7.20;1.95;;;10.00;99.90;;;;;;5027598;28;20057;-36
2024/03/21 07:17:57;;;;;;;4.35;1.17;;;10.00;99.90;;;;;;5038171;28;20336;-35
2024/03/21 07:20:23;;;;;;;3.35;1.20;;;10.00;99.90;;;;;;5030305;28;20025;-37
2024/03/21 07:22:49;;;;;;;4.00;1.02;;;10.00;99.90;;;;;;5035231;28;20037;-35
2024/03/21 07:25:15;;;;;;;1.23;0.60;;;10.00;99.90;;;;;;5033645;28;20017;-33
2024/03/21 07:27:42;;;;;;;1.65;0.93;;;10.10;99.90;;;;;;5035425;28;20029;-36
2024/03/21 07:30:11;;;;;;;5.10;1.52;;;10.10;99.90;;;;;;5038079;28;20910;-36
2024/03/21 07:32:37;;;;;;;4.30;1.88;;;10.10;99.90;;;;;;5034799;28;20040;-35
2024/03/21 07:35:03;;;;;;;2.65;1.02;;;10.10;99.90;;;;;;5041515;28;20017;-37
2024/03/21 07:37:29;;;;;;;4.05;0.80;;;10.10;99.90;;;;;;5031465;28;20033;-36
2024/03/21 07:39:54;;;;;;;5.50;1.13;;;10.10;99.90;;;;;;5041336;28;20024;-37
2024/03/21 07:42:20;;;;;;;4.78;1.10;;;10.20;99.90;;;;;;5030561;28;20559;-35
2024/03/21 07:44:46;;;;;;;5.93;1.23;;;10.20;99.90;;;;;;5042010;28;20063;-36
2024/03/21 07:47:11;;;;;;;2.78;1.00;;;10.30;99.90;;;;;;5029794;28;20028;-35
2024/03/21 07:49:43;;;;;;;4.90;1.35;;;10.30;99.90;;;;;;5042297;28;20140;-33
2024/03/21 07:52:09;;;;;;;4.57;1.08;;;10.40;99.90;;;;;;5029631;28;20040;-34
2024/03/21 07:54:44;;;;;;;3.15;0.95;;;10.40;99.90;;;;;;5042128;28;20025;-32
2024/03/21 07:57:09;;;;;;;8.80;1.73;;;10.50;99.90;;;;;;5029828;28;20025;-32
2024/03/21 07:59:35;;;;;;;7.28;1.50;;;10.50;99.90;;;;;;5042010;28;20028;-34
2024/03/21 08:02:00;;;;;;;5.07;1.00;;;10.50;99.90;;;;;;5031428;28;20559;-35
2024/03/21 08:04:26;;;;;;;8.73;1.65;;;10.50;99.90;;;;;;5039318;28;20127;-35
2024/03/21 08:06:52;;;;;;;10.48;2.05;;;10.60;99.90;;;;;;5033198;28;20033;-30
2024/03/21 08:09:20;;;;;;;3.08;1.23;;;10.60;99.90;;;;;;5037292;28;20648;-34
2024/03/21 08:11:45;;;;;;;4.28;1.20;;;10.60;99.90;;;;;;5035733;28;20033;-36
2024/03/21 08:14:11;;;;;;;3.38;1.77;;;10.60;99.90;;;;;;5035591;28;20029;-35
2024/03/21 08:16:37;;;;;;;4.97;1.48;;;10.70;99.90;;;;;;5038934;28;20021;-38
2024/03/21 08:19:02;;;;;;;3.08;1.00;;;10.70;99.90;;;;;;5032702;28;20523;-34
2024/03/21 08:21:28;;;;;;;2.05;0.88;;;10.80;99.90;;;;;;5040566;28;20362;-35
2024/03/21 08:23:54;;;;;;;7.07;1.63;;;10.80;99.90;;;;;;5030878;28;20770;-37
2024/03/21 08:26:19;;;;;;;6.18;1.27;;;10.90;99.90;;;;;;5039371;28;20085;-36
2024/03/21 08:28:45;;;;;;;2.83;1.13;;;10.90;99.90;;;;;;5030304;28;20024;-35
2024/03/21 08:31:11;;;;;;;9.88;1.80;;;11.00;99.90;;;;;;5041451;28;20129;-37
2024/03/21 08:33:36;;;;;;;9.48;2.28;;;11.10;99.90;;;;;;5028245;28;20024;-35
2024/03/21 08:36:02;;;;;;;7.30;1.83;;;11.10;99.90;;;;;;5042133;28;20095;-35
2024/03/21 08:38:30;;;;;;;4.22;1.35;;;11.10;99.90;;;;;;5027791;28;20053;-37
2024/03/21 08:40:55;;;;;;;7.30;1.90;;;11.10;99.90;;;;;;5002059;28;20030;-35
2024/03/21 08:43:22;;;;;;;5.13;1.50;;;11.10;99.90;;;;;;5025035;28;20108;-32
2024/03/21 08:45:48;;;;;;;7.72;1.60;;;11.10;99.90;;;;;;5023618;28;20030;-36
2024/03/21 08:48:15;;;;;;;5.38;1.60;;;11.10;99.90;;;;;;5028229;28;20017;-33
2024/03/21 08:50:44;;;;;;;6.55;1.85;;;11.10;99.90;;;;;;5025857;28;20110;-36
2024/03/21 08:53:10;;;;;;;8.13;2.10;;;11.10;99.90;;;;;;5026891;28;20036;-35
2024/03/21 08:55:36;;;;;;;7.05;1.80;;;11.00;99.90;;;;;;5027317;28;20086;-35
2024/03/21 08:58:02;;;;;;;7.85;2.08;;;11.00;99.90;;;;;;5024216;28;20036;-33
2024/03/21 09:00:37;;;;;;;4.35;1.33;;;11.00;99.90;;;;;;5029437;28;20534;-35
2024/03/21 09:03:03;;;;;;;5.47;1.50;;;11.00;99.90;;;;;;5022582;28;20554;-33
2024/03/21 09:05:29;;;;;;;3.78;1.33;;;11.10;99.90;;;;;;5031012;28;20037;-32
2024/03/21 09:07:55;;;;;;;3.50;1.50;;;11.10;99.90;;;;;;5021738;28;20037;-34
2024/03/21 09:10:21;;;;;;;3.75;1.30;;;11.30;99.90;;;;;;5032014;28;20108;-32
2024/03/21 09:12:47;;;;;;;2.60;1.20;;;11.30;99.90;;;;;;5021581;28;20056;-37
2024/03/21 09:15:17;;;;;;;6.05;1.80;;;11.30;99.90;;;;;;5032299;28;20055;-35
2024/03/21 09:17:43;;;;;;;5.88;1.73;;;11.30;99.90;;;;;;5021149;28;20107;-37
2024/03/21 09:20:09;;;;;;;2.72;1.30;;;11.20;99.90;;;;;;5032544;28;20017;-36
2024/03/21 09:22:35;;;;;;;3.65;1.42;;;11.10;99.90;;;;;;5020809;28;20036;-35
2024/03/21 09:25:01;;;;;;;4.45;1.48;;;11.10;99.90;;;;;;5032831;28;20086;-34
2024/03/21 09:27:27;;;;;;;5.43;1.60;;;11.20;99.90;;;;;;5001212;28;20045;-33
2024/03/21 09:29:53;;;;;;;5.72;2.00;;;11.30;99.90;;;;;;5024067;28;20451;-35
2024/03/21 09:32:19;;;;;;;9.10;2.00;;;11.40;99.90;;;;;;5022331;28;20481;-34
2024/03/21 09:34:47;;;;;;;5.78;1.80;;;11.50;99.90;;;;;;5027828;28;20676;-33
2024/03/21 09:37:16;;;;;;;7.10;2.25;;;11.50;99.90;;;;;;5024353;28;20037;-32
2024/03/21 09:39:42;;;;;;;5.63;1.70;;;11.60;99.90;;;;;;5025556;28;20194;-32
2024/03/21 09:42:12;;;;;;;4.07;1.30;;;11.80;99.90;;;;;;5027621;28;20033;-35
2024/03/21 09:44:39;;;;;;;3.67;1.48;;;11.80;99.90;;;;;;5023103;28;20025;-36
2024/03/21 09:47:09;;;;;;;4.35;1.30;;;12.00;99.90;;;;;;5029091;28;20123;-33
2024/03/21 09:49:35;;;;;;;4.53;1.90;;;12.10;99.90;;;;;;5021854;28;20029;-36
2024/03/21 09:52:00;;;;;;;5.72;2.50;;;12.10;99.90;;;;;;5031024;28;20032;-33
2024/03/21 09:54:26;;;;;;;3.90;1.67;;;12.10;99.90;;;;;;5021438;28;20028;-33
2024/03/21 09:56:54;;;;;;;4.32;2.00;;;12.10;99.90;;;;;;5031542;28;20025;-30
2024/03/21 09:59:20;;;;;;;4.55;1.67;;;12.20;99.90;;;;;;5020267;28;20026;-35
2024/03/21 10:01:46;;;;;;;3.28;1.60;;;12.30;99.90;;;;;;5031694;28;20388;-35
2024/03/21 10:04:12;;;;;;;4.20;1.80;;;12.30;99.90;;;;;;5019570;28;20029;-34
2024/03/21 10:06:45;;;;;;;5.00;2.22;;;12.30;99.90;;;;;;5032176;28;20052;-36
2024/03/21 10:09:12;;;;;;;4.68;2.45;;;12.30;99.90;;;;;;5019834;28;20056;-34
2024/03/21 10:11:39;;;;;;;4.22;2.10;;;12.20;99.90;;;;;;5031727;28;20067;-35
2024/03/21 10:14:04;;;;;;;5.53;2.30;;;12.10;99.90;;;;;;5019932;28;20028;-35
2024/03/21 10:16:31;;;;;;;3.65;2.05;;;12.10;99.90;;;;;;5029979;28;20032;-35
2024/03/21 10:18:59;;;;;;;3.80;1.52;;;12.10;99.90;;;;;;5021487;28;20132;-35
2024/03/21 10:21:25;;;;;;;4.38;1.55;;;12.10;99.90;;;;;;5027370;28;20503;-36
2024/03/21 10:24:02;;;;;;;6.40;2.38;;;12.10;99.90;;;;;;5023694;28;20025;-36
2024/03/21 10:26:28;;;;;;;6.97;2.67;;;12.20;99.90;;;;;;5026498;28;20142;-31
2024/03/21 10:28:54;;;;;;;5.38;2.42;;;12.30;99.90;;;;;;5025147;28;20025;-34
2024/03/21 10:31:21;;;;;;;4.03;1.60;;;12.40;99.90;;;;;;5023928;28;20048;-36
2024/03/21 10:33:52;;;;;;;2.70;1.70;;;12.40;99.90;;;;;;5026640;28;20017;-35
2024/03/21 10:36:18;;;;;;;5.88;1.92;;;12.40;99.90;;;;;;5022153;28;20028;-35
2024/03/21 10:38:47;;;;;;;2.70;1.60;;;12.40;99.90;;;;;;5028847;28;20030;-31
2024/03/21 10:41:34;;;;;;;5.07;2.00;;;12.40;99.90;;;;;;5020212;28;20029;-39
2024/03/21 10:44:06;;;;;;;4.65;1.85;;;12.40;99.90;;;;;;5022107;28;20040;-33
2024/03/21 10:46:37;;;;;;;4.18;1.70;;;12.30;99.90;;;;;;5036850;28;20037;-34
2024/03/21 10:49:03;;;;;;;4.95;1.50;;;12.30;99.90;;;;;;5029945;28;20049;-35
2024/03/21 10:51:28;;;;;;;3.08;1.38;;;12.40;99.90;;;;;;5037776;28;20021;-30
2024/03/21 10:53:59;;;;;;;3.97;1.42;;;12.50;99.90;;;;;;5027992;28;20029;-36
2024/03/21 10:56:30;;;;;;;4.55;1.90;;;12.50;99.90;;;;;;5036835;28;20029;-36
2024/03/21 10:58:57;;;;;;;3.65;1.60;;;12.40;99.90;;;;;;5028064;28;20059;-35
2024/03/21 11:01:41;;;;;;;5.10;1.67;;;12.40;99.90;;;;;;5040761;28;20058;-34
2024/03/21 11:04:16;;;;;;;3.47;2.10;;;12.40;99.90;;;;;;5032520;28;20029;-35
2024/03/21 11:06:45;;;;;;;4.10;1.77;;;12.50;99.90;;;;;;5025029;28;20071;-37
2024/03/21 11:09:14;;;;;;;6.38;2.17;;;12.50;99.90;;;;;;5033587;28;20021;-36
2024/03/21 11:11:40;;;;;;;4.20;2.17;;;12.50;99.90;;;;;;5023112;28;20520;-37
2024/03/21 11:14:07;;;;;;;2.38;1.88;;;12.60;99.90;;;;;;5034234;28;20215;-32
2024/03/21 11:16:33;;;;;;;2.58;1.40;;;12.70;99.90;;;;;;5021831;28;20116;-32
2024/03/21 11:18:59;;;;;;;4.00;1.60;;;12.70;99.90;;;;;;5034689;28;20102;-36
2024/03/21 11:21:25;;;;;;;1.52;1.00;;;12.70;99.90;;;;;;5021754;28;20419;-35
2024/03/21 11:23:51;;;;;;;2.15;1.20;;;12.70;99.90;;;;;;5034599;28;20466;-35
2024/03/21 11:26:18;;;;;;;5.65;2.13;;;12.80;99.90;;;;;;5023893;28;20035;-33
2024/03/21 11:28:45;;;;;;;5.95;1.67;;;12.90;99.90;;;;;;5031645;28;20017;-33
2024/03/21 11:31:22;;;;;;;5.35;1.77;;;13.00;99.90;;;;;;5025687;28;20131;-32
2024/03/21 11:33:49;;;;;;;4.25;1.50;;;13.10;99.90;;;;;;5031179;28;20059;-36
2024/03/21 11:36:15;;;;;;;3.30;1.50;;;13.10;99.90;;;;;;5026223;28;20064;-31
2024/03/21 11:38:42;;;;;;;3.35;1.83;;;13.10;99.90;;;;;;5027213;28;20009;-35
2024/03/21 11:41:12;;;;;;;2.47;1.30;;;13.10;99.90;;;;;;5028800;28;20563;-36
2024/03/21 11:43:38;;;;;;;4.15;1.58;;;13.20;99.90;;;;;;5024487;28;20025;-32
2024/03/21 11:46:04;;;;;;;3.65;1.70;;;13.20;99.90;;;;;;5029292;28;20075;-34
2024/03/21 11:48:29;;;;;;;3.30;1.67;;;13.30;99.90;;;;;;5022242;28;20029;-35
2024/03/21 11:50:55;;;;;;;3.58;1.20;;;13.30;99.90;;;;;;5031560;28;20024;-34
2024/03/21 11:53:21;;;;;;;4.70;1.35;;;13.40;99.90;;;;;;5021387;28;20033;-35
2024/03/21 11:55:48;;;;;;;3.35;1.30;;;13.40;99.90;;;;;;5032167;28;20009;-36
2024/03/21 11:58:13;;;;;;;3.90;1.52;;;13.50;99.90;;;;;;5020659;28;20821;-36
2024/03/21 12:00:39;;;;;;;1.80;1.08;;;13.60;99.90;;;;;;5034192;28;20029;-36
2024/03/21 12:03:08;;;;;;;2.40;0.90;;;13.60;99.90;;;;;;5021990;28;20116;-36
2024/03/21 12:05:36;;;;;;;3.10;1.08;;;13.60;99.90;;;;;;5034448;28;20133;-35
2024/03/21 12:08:01;;;;;;;1.65;1.13;;;13.70;99.90;;;;;;5021950;28;20049;-34
2024/03/21 12:10:27;;;;;;;2.13;1.00;;;13.80;99.90;;;;;;5032848;28;20029;-33
2024/03/21 12:12:53;;;;;;;3.75;1.60;;;13.90;99.90;;;;;;5022693;28;20460;-33
2024/03/21 12:15:18;;;;;;;3.33;1.25;;;13.90;99.90;;;;;;5030626;28;20017;-35
2024/03/21 12:17:44;;;;;;;2.10;1.30;;;13.90;99.90;;;;;;5025212;28;20845;-34
2024/03/21 12:20:10;;;;;;;2.15;0.90;;;13.90;99.90;;;;;;5028034;28;20029;-31
2024/03/21 12:22:36;;;;;;;2.72;1.08;;;13.80;99.90;;;;;;5027366;28;20541;-36
2024/03/21 12:25:06;;;;;;;1.35;0.95;;;13.90;99.90;;;;;;5025504;28;20017;-34
2024/03/21 12:27:31;;;;;;;2.28;1.00;;;13.90;99.90;;;;;;5030281;28;20061;-32
2024/03/21 12:29:57;;;;;;;2.47;1.40;;;14.00;99.90;;;;;;5022918;28;20435;-34
2024/03/21 12:32:23;;;;;;;6.35;1.92;;;14.00;99.90;;;;;;5030122;28;20615;-35
2024/03/21 12:34:48;;;;;;;3.63;1.50;;;14.00;99.90;;;;;;5039831;28;20021;-34
2024/03/21 12:37:14;;;;;;;4.70;1.27;;;14.10;99.90;;;;;;5029234;28;20167;-35
2024/03/21 12:39:39;;;;;;;3.85;1.38;;;14.10;99.90;;;;;;5040003;28;20033;-35